Time;durP1;ratioP1;P1;durP2;ratioP2;P2;SDS_P1;SDS_P2;PMS_P1;PMS_P2;Temp;Humidity;BMP_temperature;BMP_pressure;BME280_temperature;BME280_humidity;BME280_pressure;Samples;Min_cycle;Max_cycle;Signal;HPM_P1;HPM_P2
2023/03/02 00:01:44;;;;;;;21.73;17.38;;;;;;;1.91;100.00;102781.28;10211977;28;20128;-66
2023/03/02 00:06:41;;;;;;;16.98;15.18;;;;;;;2.07;100.00;102778.16;10226558;28;20075;-68
2023/03/02 00:11:38;;;;;;;16.63;14.43;;;;;;;1.78;100.00;102774.84;10221975;28;20068;-68
2023/03/02 00:16:34;;;;;;;23.83;15.07;;;;;;;1.16;100.00;102770.66;10223653;28;20488;-68
2023/03/02 00:21:31;;;;;;;15.52;13.85;;;;;;;1.03;100.00;102766.09;10223443;28;20034;-66
2023/03/02 00:26:27;;;;;;;16.05;14.07;;;;;;;1.19;100.00;102781.03;10223374;28;20084;-66
2023/03/02 00:31:23;;;;;;;16.83;13.85;;;;;;;1.49;100.00;102764.50;10218331;28;20103;-66
2023/03/02 00:36:22;;;;;;;17.13;14.73;;;;;;;1.53;100.00;102771.94;10225444;28;20081;-66
2023/03/02 00:41:20;;;;;;;18.17;15.40;;;;;;;1.41;100.00;102752.84;10227052;28;20116;-66
2023/03/02 00:46:19;;;;;;;16.80;14.18;;;;;;;1.71;100.00;102754.31;10224813;28;20050;-67
2023/03/02 00:51:17;;;;;;;15.57;13.02;;;;;;;1.74;100.00;102757.44;10231449;28;20052;-66
2023/03/02 00:56:14;;;;;;;17.67;14.73;;;;;;;1.67;100.00;102748.50;10228258;28;20529;-66
2023/03/02 01:01:11;;;;;;;18.50;14.38;;;;;;;1.39;100.00;102754.97;10221406;28;20058;-67
2023/03/02 01:06:15;;;;;;;17.77;14.45;;;;;;;1.27;100.00;102741.22;10227864;28;20073;-67
2023/03/02 01:11:17;;;;;;;14.25;12.85;;;;;;;1.40;100.00;102737.72;10223284;28;20072;-67
2023/03/02 01:16:13;;;;;;;16.45;13.25;;;;;;;1.34;100.00;102735.84;10226017;28;20045;-67
2023/03/02 01:21:13;;;;;;;16.05;14.05;;;;;;;1.41;100.00;102725.91;10223689;28;20045;-68
2023/03/02 01:26:10;;;;;;;16.67;14.75;;;;;;;1.30;100.00;102718.47;10225548;28;20072;-68
2023/03/02 01:31:06;;;;;;;16.55;14.20;;;;;;;0.99;100.00;102711.78;10226526;28;20083;-68
2023/03/02 01:36:03;;;;;;;17.70;13.80;;;;;;;0.73;100.00;102714.41;10224899;28;20532;-68
2023/03/02 01:41:00;;;;;;;15.55;13.65;;;;;;;0.85;100.00;102710.09;10221332;28;20049;-69
2023/03/02 01:46:05;;;;;;;15.48;13.10;;;;;;;0.98;100.00;102715.50;10224674;28;20103;-68
2023/03/02 01:51:04;;;;;;;15.48;13.63;;;;;;;1.07;100.00;102707.22;10215604;28;20054;-67
2023/03/02 01:56:02;;;;;;;15.52;13.38;;;;;;;1.09;100.00;102703.31;10226627;28;20507;-68
2023/03/02 02:00:59;;;;;;;13.65;12.25;;;;;;;1.14;100.00;102697.28;10225505;28;20045;-68
2023/03/02 02:06:07;;;;;;;16.35;13.55;;;;;;;1.04;100.00;102700.38;10216098;28;20150;-68
2023/03/02 02:11:05;;;;;;;15.60;12.98;;;;;;;1.04;100.00;102703.06;10230970;28;20064;-66
2023/03/02 02:16:02;;;;;;;14.77;13.15;;;;;;;1.14;100.00;102697.28;10229132;28;20140;-68
2023/03/02 02:20:58;;;;;;;16.02;13.73;;;;;;;1.10;100.00;102690.66;10226894;28;20060;-68
2023/03/02 02:25:58;;;;;;;17.00;14.73;;;;;;;1.11;100.00;102687.75;10226969;28;20735;-68
2023/03/02 02:31:09;;;;;;;17.65;14.30;;;;;;;1.12;100.00;102688.59;10235938;28;20057;-69
2023/03/02 02:36:11;;;;;;;19.80;14.70;;;;;;;1.09;100.00;102689.00;10230174;28;20065;-69
2023/03/02 02:41:17;;;;;;;17.77;14.38;;;;;;;1.03;100.00;102685.25;10227040;28;20526;-67
2023/03/02 02:46:14;;;;;;;15.55;13.60;;;;;;;1.14;100.00;102675.72;10223015;28;20519;-68
2023/03/02 02:51:19;;;;;;;15.68;12.88;;;;;;;1.02;100.00;102672.81;10226107;28;20080;-68
2023/03/02 02:56:16;;;;;;;16.40;13.68;;;;;;;1.11;100.00;102676.16;10224064;28;20064;-68
2023/03/02 03:01:24;;;;;;;17.65;14.00;;;;;;;0.96;100.00;102668.28;10222887;28;20103;-68
2023/03/02 03:06:36;;;;;;;16.45;12.70;;;;;;;1.09;100.00;102672.81;10227210;28;20053;-69
2023/03/02 03:11:35;;;;;;;17.75;13.98;;;;;;;1.08;100.00;102671.19;10223062;28;20096;-69
2023/03/02 03:16:32;;;;;;;19.30;14.18;;;;;;;0.95;100.00;102670.13;10220423;28;20073;-69
2023/03/02 03:21:30;;;;;;;18.80;13.98;;;;;;;1.03;100.00;102669.91;10223961;28;20111;-68
2023/03/02 03:26:26;;;;;;;19.48;13.30;;;;;;;0.92;100.00;102684.00;10218522;28;20071;-69
2023/03/02 03:31:25;;;;;;;14.00;11.55;;;;;;;1.08;100.00;102671.19;10222345;28;20157;-69
2023/03/02 03:36:22;;;;;;;14.02;11.80;;;;;;;0.95;100.00;102672.84;10224419;28;20073;-68
2023/03/02 03:41:18;;;;;;;15.82;12.50;;;;;;;0.97;100.00;102678.81;10227421;28;20132;-68
2023/03/02 03:46:15;;;;;;;16.23;13.38;;;;;;;0.96;100.00;102669.09;10218897;28;20119;-70
2023/03/02 03:51:13;;;;;;;15.00;12.13;;;;;;;0.87;100.00;102670.31;10227307;28;20053;-69
2023/03/02 03:56:09;;;;;;;14.25;11.45;;;;;;;0.75;100.00;102669.28;10221040;28;20069;-70
2023/03/02 04:01:06;;;;;;;14.07;11.40;;;;;;;0.73;100.00;102672.16;10219445;28;20129;-70
2023/03/02 04:06:02;;;;;;;14.63;11.75;;;;;;;0.52;100.00;102678.53;10224136;28;20530;-69
2023/03/02 04:10:59;;;;;;;17.70;14.00;;;;;;;0.53;100.00;102680.16;10225762;28;20075;-69
2023/03/02 04:15:55;;;;;;;16.10;13.90;;;;;;;0.54;100.00;102676.47;10233282;28;20134;-69
2023/03/02 04:20:52;;;;;;;16.48;13.57;;;;;;;0.59;100.00;102684.75;10225296;28;20064;-68
2023/03/02 04:25:48;;;;;;;17.50;13.50;;;;;;;0.56;100.00;102674.41;10234381;28;20055;-68
2023/03/02 04:30:44;;;;;;;15.63;13.15;;;;;;;0.70;100.00;102677.13;10233675;28;20137;-68
2023/03/02 04:35:41;;;;;;;18.52;14.18;;;;;;;0.64;100.00;102678.75;10226227;28;20406;-70
2023/03/02 04:40:38;;;;;;;16.15;12.77;;;;;;;0.55;100.00;102677.28;10233565;28;20045;-70
2023/03/02 04:45:34;;;;;;;15.45;12.88;;;;;;;0.39;100.00;102684.69;10233304;28;20050;-69
2023/03/02 04:50:31;;;;;;;16.85;14.20;;;;;;;0.54;100.00;102672.94;10232623;28;20041;-68
2023/03/02 04:55:27;;;;;;;15.77;12.15;;;;;;;0.32;100.00;102680.31;10227260;28;20065;-68
2023/03/02 05:00:24;;;;;;;15.82;12.25;;;;;;;0.45;100.00;102688.44;10223811;28;20045;-70
2023/03/02 05:05:23;;;;;;;16.10;13.05;;;;;;;0.53;100.00;102692.81;10216883;28;20486;-71
2023/03/02 05:10:21;;;;;;;15.20;13.57;;;;;;;0.46;100.00;102698.16;10229792;28;20133;-70
2023/03/02 05:15:18;;;;;;;17.10;14.18;;;;;;;0.48;100.00;102693.41;10232150;28;20555;-70
2023/03/02 05:20:14;;;;;;;16.70;13.45;;;;;;;0.54;100.00;102692.63;10229596;28;20053;-70
2023/03/02 05:25:11;;;;;;;17.13;13.05;;;;;;;0.45;100.00;102704.59;10229964;28;20049;-69
2023/03/02 05:30:08;;;;;;;19.75;14.88;;;;;;;0.36;100.00;102700.41;10230874;28;20049;-69
2023/03/02 05:35:05;;;;;;;19.35;14.90;;;;;;;0.38;100.00;102692.97;10220927;28;20081;-69
2023/03/02 05:40:02;;;;;;;30.13;15.77;;;;;;;0.04;100.00;102697.34;10231629;28;20136;-69
2023/03/02 05:44:59;;;;;;;19.90;13.82;;;;;;;0.11;100.00;102692.00;10229436;28;20526;-69
2023/03/02 05:49:55;;;;;;;21.85;14.32;;;;;;;0.22;100.00;102693.31;10223371;28;20492;-69
2023/03/02 05:54:52;;;;;;;21.00;15.45;;;;;;;0.27;100.00;102693.53;10227842;28;20442;-69
2023/03/02 05:59:49;;;;;;;25.25;15.85;;;;;;;0.12;100.00;102682.94;10227514;28;20087;-70
2023/03/02 06:04:46;;;;;;;22.27;16.13;;;;;;;0.08;100.00;102677.13;10228331;28;20037;-70
2023/03/02 06:09:42;;;;;;;24.80;15.63;;;;;;;0.15;100.00;102688.72;10227180;28;20106;-70
2023/03/02 06:14:39;;;;;;;19.85;15.90;;;;;;;0.20;100.00;102694.34;10223304;28;20053;-70
2023/03/02 06:19:35;;;;;;;25.13;16.75;;;;;;;0.32;100.00;102710.72;10211189;28;20129;-70
2023/03/02 06:24:32;;;;;;;20.70;16.40;;;;;;;0.46;100.00;102706.25;10218965;28;20037;-70
2023/03/02 06:29:28;;;;;;;27.77;18.05;;;;;;;0.31;100.00;102708.25;10218249;28;20532;-70
2023/03/02 06:34:25;;;;;;;20.15;16.17;;;;;;;0.43;100.00;102706.66;10216485;28;20045;-70
2023/03/02 06:39:22;;;;;;;23.00;16.45;;;;;;;0.45;100.00;102701.91;10217068;28;20053;-70
2023/03/02 06:44:18;;;;;;;24.13;16.80;;;;;;;0.53;100.00;102696.31;10224301;28;20641;-70
2023/03/02 06:49:15;;;;;;;22.30;16.90;;;;;;;0.44;100.00;102697.53;10208573;28;20069;-71
2023/03/02 06:54:11;;;;;;;20.98;16.40;;;;;;;0.44;100.00;102697.53;10226596;28;20073;-71
2023/03/02 06:59:08;;;;;;;22.52;16.60;;;;;;;0.36;100.00;102700.41;10225070;28;20466;-70
2023/03/02 07:04:04;;;;;;;21.95;16.20;;;;;;;0.46;100.00;102692.78;10223695;28;20678;-74
2023/03/02 07:09:01;;;;;;;21.65;16.35;;;;;;;0.61;100.00;102692.63;10215369;28;20056;-74
2023/03/02 07:14:01;;;;;;;30.77;17.83;;;;;;;0.41;100.00;102682.63;10198890;28;20656;-74
2023/03/02 07:18:57;;;;;;;25.35;16.75;;;;;;;0.51;100.00;102687.66;10204491;28;20642;-72
2023/03/02 07:23:54;;;;;;;31.63;19.15;;;;;;;0.26;100.00;102691.91;10200097;28;20080;-72
2023/03/02 07:28:51;;;;;;;19.88;15.73;;;;;;;0.60;100.00;102685.59;10201477;28;20042;-73
2023/03/02 07:33:47;;;;;;;20.15;16.02;;;;;;;0.55;100.00;102686.19;10198671;28;20066;-71
2023/03/02 07:38:44;;;;;;;22.50;16.92;;;;;;;0.70;100.00;102686.03;10227037;28;20140;-71
2023/03/02 07:43:40;;;;;;;19.40;16.52;;;;;;;0.87;100.00;102681.09;10218992;28;20508;-71
2023/03/02 07:48:37;;;;;;;18.58;15.98;;;;;;;0.92;100.00;102678.59;10210635;28;20054;-71
2023/03/02 07:53:33;;;;;;;21.08;16.50;;;;;;;0.92;100.00;102678.59;10209663;28;20037;-70
2023/03/02 07:58:30;;;;;;;20.77;15.90;;;;;;;1.01;100.00;102669.28;10207247;28;20753;-71
2023/03/02 08:03:27;;;;;;;26.30;18.15;;;;;;;0.89;100.00;102670.13;10212672;28;20077;-71
2023/03/02 08:08:23;;;;;;;19.65;15.82;;;;;;;1.05;100.00;102662.47;10198312;28;20053;-71
2023/03/02 08:13:20;;;;;;;19.85;15.38;;;;;;;1.12;100.00;102657.09;10213706;28;20041;-71
2023/03/02 08:18:16;;;;;;;20.52;15.35;;;;;;;1.33;100.00;102672.22;10210299;28;20440;-71
2023/03/02 08:23:13;;;;;;;20.25;15.18;;;;;;;1.37;100.00;102662.69;10210518;28;20037;-70
2023/03/02 08:28:09;;;;;;;21.80;16.25;;;;;;;1.29;100.00;102657.50;10213076;28;20053;-71
2023/03/02 08:33:06;;;;;;;22.02;15.98;;;;;;;1.36;100.00;102663.69;10211047;28;20041;-72
2023/03/02 08:38:02;;;;;;;24.77;17.70;;;;;;;1.04;100.00;102655.44;10231060;28;20485;-72
2023/03/02 08:42:59;;;;;;;23.27;17.42;;;;;;;1.32;100.00;102662.47;10209947;28;20045;-72
2023/03/02 08:47:55;;;;;;;24.55;17.25;;;;;;;1.44;100.00;102663.50;10220426;28;20129;-71
2023/03/02 08:52:52;;;;;;;25.27;17.77;;;;;;;1.33;100.00;102658.75;10212923;28;20080;-71
2023/03/02 08:57:48;;;;;;;25.08;16.98;;;;;;;1.26;100.00;102652.53;10205529;28;20504;-71
2023/03/02 09:02:45;;;;;;;28.92;17.88;;;;;;;0.90;100.00;102659.13;10208905;28;20121;-72
2023/03/02 09:07:41;;;;;;;21.35;15.43;;;;;;;1.55;100.00;102650.41;10173721;28;1044471;-72
2023/03/02 09:12:39;;;;;;;20.08;15.02;;;;;;;1.36;100.00;102642.16;10202826;28;20541;-72
2023/03/02 09:17:35;;;;;;;21.33;16.40;;;;;;;1.63;100.00;102636.72;10205096;28;20046;-72
2023/03/02 09:22:34;;;;;;;21.27;16.58;;;;;;;1.66;100.00;102633.59;10214634;28;20053;-72
2023/03/02 09:27:31;;;;;;;17.70;14.18;;;;;;;1.72;100.00;102640.00;10217537;28;20523;-72
2023/03/02 09:32:27;;;;;;;19.55;14.52;;;;;;;1.81;100.00;102639.59;10211882;28;20153;-73
2023/03/02 09:37:26;;;;;;;15.88;14.18;;;;;;;1.66;100.00;102641.69;10212307;28;20096;-73
2023/03/02 09:42:22;;;;;;;19.60;14.35;;;;;;;2.01;100.00;102639.50;10213930;28;20049;-73
2023/03/02 09:48:02;;;;;;;19.75;13.77;;;;;;;1.80;100.00;102642.47;10240266;28;20163;-73
2023/03/02 09:53:28;;;;;;;18.70;13.93;;;;;;;2.01;100.00;102638.69;10203136;28;20069;-73
2023/03/02 09:58:30;;;;;;;18.38;13.60;;;;;;;2.10;100.00;102634.69;10211361;28;20100;-73
2023/03/02 10:03:35;;;;;;;22.92;15.50;;;;;;;1.96;100.00;102643.88;10208745;28;20042;-73
2023/03/02 10:08:36;;;;;;;18.60;13.65;;;;;;;1.97;100.00;102642.84;10215201;28;20049;-73
2023/03/02 10:14:02;;;;;;;19.55;14.30;;;;;;;2.09;100.00;102651.94;10210689;28;20676;-72
2023/03/02 10:19:16;;;;;;;18.45;14.32;;;;;;;1.85;100.00;102646.19;10189513;28;20453;-71
2023/03/02 10:24:34;;;;;;;18.02;14.35;;;;;;;1.87;100.00;102644.09;10219146;28;20069;-72
2023/03/02 10:29:58;;;;;;;19.42;15.07;;;;;;;1.71;100.00;102639.19;10214594;28;20080;-73
2023/03/02 10:34:56;;;;;;;22.83;15.32;;;;;;;2.16;100.00;102647.34;10210937;28;20050;-72
2023/03/02 10:39:54;;;;;;;19.02;14.77;;;;;;;2.39;100.00;102636.03;10205926;28;20140;-72
2023/03/02 10:44:58;;;;;;;19.38;14.75;;;;;;;2.66;100.00;102642.09;10199244;28;20038;-72
2023/03/02 10:49:56;;;;;;;18.75;14.60;;;;;;;2.81;100.00;102632.84;10213099;28;20558;-73
2023/03/02 10:55:13;;;;;;;18.00;13.77;;;;;;;2.17;100.00;102643.59;10205553;28;20451;-73
2023/03/02 11:00:10;;;;;;;16.05;13.00;;;;;;;2.08;100.00;102639.47;10202633;28;20138;-72
2023/03/02 11:05:32;;;;;;;19.35;14.90;;;;;;;2.33;100.00;102628.78;10209441;28;20438;-72
2023/03/02 11:10:49;;;;;;;19.67;13.73;;;;;;;2.40;100.00;102626.88;10206972;28;20108;-74
2023/03/02 11:15:49;;;;;;;18.58;13.43;;;;;;;2.35;100.00;102628.56;10214621;28;20095;-72
2023/03/02 11:20:51;;;;;;;18.38;12.85;;;;;;;1.62;100.00;102625.09;10221748;28;20045;-73
2023/03/02 11:25:57;;;;;;;19.33;13.35;;;;;;;2.54;100.00;102616.81;10225945;28;20132;-72
2023/03/02 11:30:57;;;;;;;17.85;13.60;;;;;;;2.43;100.00;102614.81;10236046;28;20069;-66
2023/03/02 11:36:24;;;;;;;17.70;12.82;;;;;;;2.22;100.00;102614.09;10216860;28;20088;-66
2023/03/02 11:41:29;;;;;;;17.15;12.77;;;;;;;2.65;100.00;102608.03;10221611;28;20037;-66
2023/03/02 11:46:31;;;;;;;15.60;12.52;;;;;;;2.65;100.00;102597.22;10221219;28;20065;-67
2023/03/02 11:51:34;;;;;;;15.43;11.87;;;;;;;2.69;100.00;102595.75;10216335;28;20046;-67
2023/03/02 11:56:35;;;;;;;16.35;12.70;;;;;;;2.74;100.00;102595.91;10202044;28;20145;-67
2023/03/02 12:01:34;;;;;;;17.90;12.23;;;;;;;2.60;100.00;102605.16;10204995;28;20562;-68
2023/03/02 12:06:39;;;;;;;20.48;14.27;;;;;;;2.68;100.00;102596.78;10200059;28;20499;-67
2023/03/02 12:11:39;;;;;;;20.83;14.23;;;;;;;2.98;100.00;102588.03;10206670;28;20547;-67
2023/03/02 12:16:39;;;;;;;20.52;15.10;;;;;;;3.13;100.00;102577.72;10202916;28;20045;-67
2023/03/02 12:21:41;;;;;;;24.35;13.95;;;;;;;2.99;100.00;102580.75;10200670;28;20058;-68
2023/03/02 12:26:37;;;;;;;20.02;14.57;;;;;;;2.90;100.00;102572.09;10202985;28;20850;-68
2023/03/02 12:31:46;;;;;;;19.95;13.63;;;;;;;3.07;100.00;102567.78;10212399;28;20103;-68
2023/03/02 12:36:43;;;;;;;18.98;13.40;;;;;;;3.39;100.00;102559.59;10213873;28;20096;-69
2023/03/02 12:42:08;;;;;;;19.35;13.27;;;;;;;3.31;100.00;102551.75;10207803;28;20516;-68
2023/03/02 12:47:14;;;;;;;17.73;12.95;;;;;;;3.15;100.00;102548.56;10219832;28;20057;-68
2023/03/02 12:52:33;;;;;;;16.70;12.82;;;;;;;3.49;100.00;102535.53;10216707;28;20044;-68
2023/03/02 12:57:30;;;;;;;18.52;12.70;;;;;;;3.29;100.00;102526.81;10220364;28;20052;-68
2023/03/02 13:02:32;;;;;;;16.58;12.35;;;;;;;3.05;100.00;102532.03;10234037;28;20076;-68
2023/03/02 13:07:36;;;;;;;20.63;13.27;;;;;;;3.16;100.00;102534.03;10210233;28;20466;-69
2023/03/02 13:12:34;;;;;;;17.25;12.38;;;;;;;3.35;100.00;102517.81;10225976;28;20045;-68
2023/03/02 13:17:31;;;;;;;16.08;12.50;;;;;;;3.45;100.00;102515.41;10220037;28;20496;-69
2023/03/02 13:22:28;;;;;;;17.65;12.95;;;;;;;3.69;100.00;102520.94;10213766;28;20482;-68
2023/03/02 13:27:26;;;;;;;17.08;12.38;;;;;;;3.30;100.00;102510.38;10230631;28;20096;-68
2023/03/02 13:32:25;;;;;;;14.73;11.43;;;;;;;3.46;100.00;102511.66;10209785;28;20103;-68
2023/03/02 13:37:42;;;;;;;11.23;9.20;;;;;;;3.27;100.00;102501.88;10205917;28;20042;-67
2023/03/02 13:42:39;;;;;;;11.73;10.05;;;;;;;3.69;100.00;102499.28;10195189;28;20077;-67
2023/03/02 13:47:36;;;;;;;15.57;10.20;;;;;;;3.35;100.00;102488.06;10199263;28;20121;-68
2023/03/02 13:52:33;;;;;;;14.30;9.95;;;;;;;3.29;100.00;102497.06;10204825;28;20629;-70
2023/03/02 13:57:31;;;;;;;12.50;9.77;;;;;;;3.80;100.00;102487.69;10215203;28;20306;-67
2023/03/02 14:02:29;;;;;;;11.05;9.60;;;;;;;3.88;100.00;102471.16;10209121;28;20051;-68
2023/03/02 14:07:26;;;;;;;11.05;9.43;;;;;;;4.03;100.00;102467.19;10222030;28;20478;-68
2023/03/02 14:12:29;;;;;;;10.45;9.27;;;;;;;4.05;100.00;102465.09;10204934;28;20884;-69
2023/03/02 14:17:26;;;;;;;10.48;9.38;;;;;;;4.21;100.00;102450.88;10207873;28;20128;-68
2023/03/02 14:22:25;;;;;;;11.05;9.95;;;;;;;4.14;100.00;102450.16;10209045;28;20064;-67
2023/03/02 14:27:25;;;;;;;9.55;8.02;;;;;;;4.58;100.00;102448.00;10208373;28;20498;-66
2023/03/02 14:32:22;;;;;;;10.50;9.40;;;;;;;4.11;100.00;102442.53;10215931;28;20076;-67
2023/03/02 14:37:24;;;;;;;13.45;10.52;;;;;;;4.12;100.00;102444.16;10214612;28;20071;-67
2023/03/02 14:42:21;;;;;;;11.30;9.60;;;;;;;3.85;100.00;102433.72;10210754;28;20396;-68
2023/03/02 14:47:18;;;;;;;11.48;9.85;;;;;;;3.68;100.00;102427.31;10210129;28;20041;-68
2023/03/02 14:52:29;;;;;;;12.30;10.25;;;;;;;3.97;100.00;102428.38;10224104;28;20462;-67
2023/03/02 14:57:27;;;;;;;10.77;9.65;;;;;;;4.13;100.00;102430.41;10207701;28;20133;-68
2023/03/02 15:02:24;;;;;;;12.77;10.55;;;;;;;4.34;100.00;102425.47;10208129;28;20050;-66
2023/03/02 15:07:24;;;;;;;12.07;10.05;;;;;;;4.11;100.00;102418.16;10214402;28;20046;-66
2023/03/02 15:12:20;;;;;;;10.88;9.70;;;;;;;4.05;100.00;102428.00;10206488;28;20080;-67
2023/03/02 15:17:17;;;;;;;12.00;9.90;;;;;;;4.16;100.00;102423.69;10213144;28;20072;-67
2023/03/02 15:22:13;;;;;;;14.77;10.90;;;;;;;4.03;100.00;102430.13;10221630;28;20124;-68
2023/03/02 15:27:10;;;;;;;12.30;10.38;;;;;;;3.77;100.00;102425.94;10202152;28;20053;-67
2023/03/02 15:32:06;;;;;;;13.57;10.50;;;;;;;3.56;100.00;102409.16;10209128;28;20794;-67
2023/03/02 15:37:03;;;;;;;15.20;11.48;;;;;;;3.41;100.00;102408.72;10212004;28;20064;-67
2023/03/02 15:42:00;;;;;;;13.77;10.13;;;;;;;3.59;100.00;102403.28;10226072;28;20045;-67
2023/03/02 15:46:58;;;;;;;20.30;10.40;;;;;;;3.71;100.00;102399.78;10208792;28;20619;-67
2023/03/02 15:51:58;;;;;;;11.60;10.00;;;;;;;3.65;100.00;102389.91;10202232;28;20341;-66
2023/03/02 15:56:55;;;;;;;16.63;11.48;;;;;;;3.36;100.00;102387.81;10207689;28;20092;-66
2023/03/02 16:01:52;;;;;;;14.93;10.65;;;;;;;3.49;100.00;102403.00;10216755;28;20041;-66
2023/03/02 16:06:49;;;;;;;14.43;10.23;;;;;;;3.55;100.00;102407.53;10212639;28;20160;-66
2023/03/02 16:11:47;;;;;;;14.57;10.55;;;;;;;3.36;100.00;102397.78;10222567;28;20080;-66
2023/03/02 16:16:45;;;;;;;12.13;10.02;;;;;;;3.32;100.00;102399.31;10222079;28;20042;-65
2023/03/02 16:21:41;;;;;;;12.43;10.00;;;;;;;3.29;100.00;102397.84;10215219;28;20064;-66
2023/03/02 16:26:38;;;;;;;11.70;10.48;;;;;;;3.27;100.00;102405.41;10226799;28;20514;-66
2023/03/02 16:31:36;;;;;;;13.55;10.38;;;;;;;3.35;100.00;102402.38;10212082;28;20592;-66
2023/03/02 16:36:35;;;;;;;16.63;10.98;;;;;;;3.00;100.00;102407.59;10206071;28;20053;-66
2023/03/02 16:41:32;;;;;;;12.68;10.00;;;;;;;2.92;100.00;102419.53;10209258;28;20045;-66
2023/03/02 16:46:31;;;;;;;13.40;10.15;;;;;;;2.74;100.00;102428.44;10208860;28;20128;-66
2023/03/02 16:51:27;;;;;;;14.70;10.73;;;;;;;2.88;100.00;102431.81;10211462;28;20049;-66
2023/03/02 16:56:24;;;;;;;14.68;11.68;;;;;;;2.98;100.00;102439.41;10217746;28;20088;-66
2023/03/02 17:01:20;;;;;;;14.15;10.27;;;;;;;2.79;100.00;102437.75;10205741;28;20057;-66
2023/03/02 17:06:19;;;;;;;17.00;12.38;;;;;;;2.89;100.00;102440.75;10226110;28;20045;-65
2023/03/02 17:11:17;;;;;;;16.92;12.13;;;;;;;3.05;100.00;102445.56;10215525;28;20045;-65
2023/03/02 17:16:15;;;;;;;17.00;13.27;;;;;;;2.64;100.00;102449.72;10221346;28;20692;-65
2023/03/02 17:21:13;;;;;;;16.27;12.45;;;;;;;2.97;100.00;102447.72;10218929;28;20048;-65
2023/03/02 17:26:10;;;;;;;18.30;13.25;;;;;;;2.86;100.00;102452.03;10218033;28;20047;-65
2023/03/02 17:31:07;;;;;;;20.13;14.45;;;;;;;2.71;100.00;102450.47;10214917;28;20077;-65
2023/03/02 17:36:06;;;;;;;18.10;15.27;;;;;;;2.90;100.00;102447.78;10225386;28;20491;-65
2023/03/02 17:41:04;;;;;;;19.98;14.52;;;;;;;2.98;100.00;102450.22;10220335;28;20441;-65
2023/03/02 17:46:19;;;;;;;18.73;14.45;;;;;;;2.95;100.00;102456.09;10207755;28;20095;-65
2023/03/02 17:51:16;;;;;;;18.23;14.05;;;;;;;3.01;100.00;102449.75;10206968;28;20061;-65
2023/03/02 17:56:14;;;;;;;22.63;15.13;;;;;;;3.11;100.00;102452.78;10213774;28;20822;-66
2023/03/02 18:01:11;;;;;;;20.85;14.15;;;;;;;3.13;100.00;102464.19;10204918;28;20058;-65
2023/03/02 18:06:08;;;;;;;24.88;15.32;;;;;;;3.08;100.00;102450.50;10209059;28;20065;-65
2023/03/02 18:11:05;;;;;;;22.95;15.77;;;;;;;3.10;100.00;102459.22;10204639;28;20073;-65
2023/03/02 18:16:01;;;;;;;23.42;15.00;;;;;;;3.06;100.00;102441.81;10207821;28;20053;-65
2023/03/02 18:20:58;;;;;;;21.63;15.32;;;;;;;3.20;100.00;102452.47;10214755;28;20041;-66
2023/03/02 18:25:55;;;;;;;20.90;14.82;;;;;;;3.17;100.00;102449.16;10211451;28;20629;-65
2023/03/02 18:30:51;;;;;;;19.67;13.90;;;;;;;3.19;100.00;102450.81;10215792;28;20089;-65
2023/03/02 18:35:48;;;;;;;22.83;15.35;;;;;;;3.20;100.00;102441.66;10216735;28;20048;-65
2023/03/02 18:40:44;;;;;;;21.00;15.10;;;;;;;3.09;100.00;102435.97;10208340;28;20074;-66
2023/03/02 18:45:41;;;;;;;19.80;14.27;;;;;;;3.03;100.00;102444.13;10230170;28;20503;-66
2023/03/02 18:50:38;;;;;;;20.30;15.25;;;;;;;3.02;100.00;102450.56;10207859;28;20046;-66
2023/03/02 18:55:39;;;;;;;19.30;14.20;;;;;;;3.04;100.00;102449.34;10197428;28;20049;-66
2023/03/02 19:00:36;;;;;;;20.42;15.20;;;;;;;3.06;100.00;102449.91;10203982;28;20053;-69
2023/03/02 19:05:32;;;;;;;23.08;15.20;;;;;;;3.05;100.00;102456.38;10194020;28;20048;-69
2023/03/02 19:10:29;;;;;;;20.98;14.52;;;;;;;3.03;100.00;102463.88;10201179;28;20547;-69
2023/03/02 19:15:25;;;;;;;19.77;14.35;;;;;;;2.95;100.00;102461.47;10214529;28;20045;-69
2023/03/02 19:20:22;;;;;;;23.50;15.80;;;;;;;2.74;100.00;102452.75;10216630;28;20053;-69
2023/03/02 19:25:19;;;;;;;23.00;16.30;;;;;;;2.48;100.00;102461.06;10220144;28;20125;-69
2023/03/02 19:30:21;;;;;;;23.08;16.15;;;;;;;2.36;100.00;102462.84;10192868;28;20100;-69
2023/03/02 19:35:23;;;;;;;22.23;16.35;;;;;;;2.11;100.00;102469.03;10222857;28;20080;-69
2023/03/02 19:40:23;;;;;;;26.25;17.30;;;;;;;1.91;100.00;102471.06;10237517;28;20049;-69
2023/03/02 19:45:27;;;;;;;21.08;16.00;;;;;;;1.85;100.00;102473.56;10224863;28;20045;-69
2023/03/02 19:50:25;;;;;;;23.27;16.98;;;;;;;1.96;100.00;102477.44;10227797;28;20519;-69
2023/03/02 19:55:23;;;;;;;24.23;18.55;;;;;;;1.84;100.00;102471.91;10227698;28;20053;-69
2023/03/02 20:00:20;;;;;;;28.65;17.00;;;;;;;1.68;100.00;102461.63;10228764;28;20518;-69
2023/03/02 20:05:16;;;;;;;23.13;17.45;;;;;;;1.51;100.00;102466.69;10211951;28;20041;-69
2023/03/02 20:10:33;;;;;;;24.25;17.73;;;;;;;1.34;100.00;102466.34;10225107;28;20042;-69
2023/03/02 20:15:32;;;;;;;21.95;17.88;;;;;;;1.24;100.00;102466.78;10215945;28;20085;-69
2023/03/02 20:20:29;;;;;;;26.20;18.25;;;;;;;1.16;100.00;102485.03;10224193;28;20046;-69
2023/03/02 20:25:27;;;;;;;24.38;18.40;;;;;;;1.02;100.00;102485.09;10222982;28;20452;-69
2023/03/02 20:30:36;;;;;;;25.02;17.73;;;;;;;0.95;100.00;102484.28;10225992;28;20128;-69
2023/03/02 20:35:38;;;;;;;28.67;19.20;;;;;;;0.94;100.00;102482.63;10233666;28;20076;-69
2023/03/02 20:40:36;;;;;;;27.85;19.98;;;;;;;1.00;100.00;102475.56;10225462;28;20046;-69
2023/03/02 20:45:33;;;;;;;27.83;19.33;;;;;;;0.92;100.00;102479.31;10227375;28;20056;-70
2023/03/02 20:50:32;;;;;;;28.63;20.40;;;;;;;0.84;100.00;102482.22;10219160;28;20049;-69
2023/03/02 20:55:28;;;;;;;25.35;17.77;;;;;;;0.75;100.00;102483.47;10232698;28;20073;-69
2023/03/02 21:00:27;;;;;;;29.95;19.95;;;;;;;0.70;100.00;102470.66;10221644;28;20053;-70
2023/03/02 21:05:25;;;;;;;31.83;20.45;;;;;;;0.69;100.00;102479.75;10229199;28;20046;-69
2023/03/02 21:10:27;;;;;;;26.67;18.80;;;;;;;0.56;100.00;102475.22;10211584;28;20140;-69
2023/03/02 21:15:26;;;;;;;26.98;19.15;;;;;;;0.56;100.00;102477.91;10214715;28;20719;-70
2023/03/02 21:20:24;;;;;;;29.67;19.27;;;;;;;0.52;100.00;102473.97;10215233;28;20049;-71
2023/03/02 21:25:21;;;;;;;30.35;19.60;;;;;;;0.52;100.00;102460.50;10214130;28;20049;-68
2023/03/02 21:30:29;;;;;;;31.63;20.95;;;;;;;0.53;100.00;102459.44;10218192;28;20055;-66
2023/03/02 21:35:26;;;;;;;31.48;19.80;;;;;;;0.50;100.00;102459.88;10212725;28;20480;-69
2023/03/02 21:40:28;;;;;;;28.70;19.92;;;;;;;0.59;100.00;102458.63;10213201;28;20053;-70
2023/03/02 21:45:27;;;;;;;32.13;19.30;;;;;;;0.61;100.00;102451.19;10208424;28;20052;-70
2023/03/02 21:50:27;;;;;;;31.73;19.98;;;;;;;0.58;100.00;102454.31;10207343;28;20408;-70
2023/03/02 21:55:25;;;;;;;32.85;19.17;;;;;;;0.56;100.00;102448.28;10209046;28;20117;-71
2023/03/02 22:00:31;;;;;;;35.38;20.13;;;;;;;0.51;100.00;102456.16;10206504;28;20053;-68
2023/03/02 22:05:28;;;;;;;39.85;21.02;;;;;;;0.43;100.00;102459.06;10216051;28;20045;-70
2023/03/02 22:10:45;;;;;;;41.53;22.17;;;;;;;0.40;100.00;102454.09;10217450;28;20077;-71
2023/03/02 22:15:45;;;;;;;44.63;23.40;;;;;;;0.39;100.00;102449.72;10219085;28;20132;-70
2023/03/02 22:20:43;;;;;;;33.45;20.75;;;;;;;0.28;100.00;102450.34;10218027;28;20071;-70
2023/03/02 22:25:44;;;;;;;35.88;21.00;;;;;;;0.22;100.00;102452.00;10219422;28;20077;-70